sensor_id;sensor_type;location;lat;lon;timestamp;P1;durP1;ratioP1;P2;durP2;ratioP2
52380;SDS011;38310;52.796;6.942;2023-08-08T00:01:06;11.80;;;5.25;;
52380;SDS011;38310;52.796;6.942;2023-08-08T00:03:31;8.57;;;5.60;;
52380;SDS011;38310;52.796;6.942;2023-08-08T00:05:57;7.13;;;5.47;;
52380;SDS011;38310;52.796;6.942;2023-08-08T00:08:23;6.90;;;5.30;;
52380;SDS011;38310;52.796;6.942;2023-08-08T00:10:48;9.57;;;5.80;;
52380;SDS011;38310;52.796;6.942;2023-08-08T00:13:14;8.80;;;5.32;;
52380;SDS011;38310;52.796;6.942;2023-08-08T00:15:40;10.05;;;5.75;;
52380;SDS011;38310;52.796;6.942;2023-08-08T00:18:05;9.52;;;5.68;;
52380;SDS011;38310;52.796;6.942;2023-08-08T00:20:31;7.47;;;5.55;;
52380;SDS011;38310;52.796;6.942;2023-08-08T00:22:57;9.82;;;5.82;;
52380;SDS011;38310;52.796;6.942;2023-08-08T00:25:23;6.68;;;5.30;;
52380;SDS011;38310;52.796;6.942;2023-08-08T00:27:49;7.30;;;5.35;;
52380;SDS011;38310;52.796;6.942;2023-08-08T00:30:15;8.63;;;5.65;;
52380;SDS011;38310;52.796;6.942;2023-08-08T00:32:41;8.48;;;5.40;;
52380;SDS011;38310;52.796;6.942;2023-08-08T00:35:07;8.60;;;4.85;;
52380;SDS011;38310;52.796;6.942;2023-08-08T00:37:33;8.65;;;5.53;;
52380;SDS011;38310;52.796;6.942;2023-08-08T00:39:59;6.97;;;5.07;;
52380;SDS011;38310;52.796;6.942;2023-08-08T00:42:25;8.90;;;5.78;;
52380;SDS011;38310;52.796;6.942;2023-08-08T00:44:50;9.55;;;5.15;;
52380;SDS011;38310;52.796;6.942;2023-08-08T00:47:16;8.25;;;5.30;;
52380;SDS011;38310;52.796;6.942;2023-08-08T00:49:42;9.13;;;5.80;;
52380;SDS011;38310;52.796;6.942;2023-08-08T00:52:11;9.15;;;5.68;;
52380;SDS011;38310;52.796;6.942;2023-08-08T00:54:38;6.63;;;5.50;;
52380;SDS011;38310;52.796;6.942;2023-08-08T00:57:04;6.93;;;5.47;;
52380;SDS011;38310;52.796;6.942;2023-08-08T00:59:30;10.48;;;6.30;;
52380;SDS011;38310;52.796;6.942;2023-08-08T01:01:57;9.70;;;5.90;;
52380;SDS011;38310;52.796;6.942;2023-08-08T01:04:24;10.88;;;5.50;;
52380;SDS011;38310;52.796;6.942;2023-08-08T01:07:39;12.68;;;6.15;;
52380;SDS011;38310;52.796;6.942;2023-08-08T01:09:39;8.23;;;5.55;;
52380;SDS011;38310;52.796;6.942;2023-08-08T01:12:12;9.20;;;6.05;;
52380;SDS011;38310;52.796;6.942;2023-08-08T01:14:40;9.82;;;6.30;;
52380;SDS011;38310;52.796;6.942;2023-08-08T01:17:07;8.35;;;5.40;;
52380;SDS011;38310;52.796;6.942;2023-08-08T01:19:35;9.82;;;5.85;;
52380;SDS011;38310;52.796;6.942;2023-08-08T01:22:02;11.13;;;5.95;;
52380;SDS011;38310;52.796;6.942;2023-08-08T01:24:39;9.15;;;5.80;;
52380;SDS011;38310;52.796;6.942;2023-08-08T01:27:05;9.05;;;5.85;;
52380;SDS011;38310;52.796;6.942;2023-08-08T01:29:31;7.72;;;5.85;;
52380;SDS011;38310;52.796;6.942;2023-08-08T01:31:57;8.63;;;5.85;;
52380;SDS011;38310;52.796;6.942;2023-08-08T01:34:23;7.93;;;5.65;;
52380;SDS011;38310;52.796;6.942;2023-08-08T01:36:56;8.18;;;5.78;;
52380;SDS011;38310;52.796;6.942;2023-08-08T01:39:27;7.47;;;5.63;;
52380;SDS011;38310;52.796;6.942;2023-08-08T01:41:55;8.50;;;5.85;;
52380;SDS011;38310;52.796;6.942;2023-08-08T01:44:23;8.80;;;5.63;;
52380;SDS011;38310;52.796;6.942;2023-08-08T01:46:51;10.77;;;6.47;;
52380;SDS011;38310;52.796;6.942;2023-08-08T01:49:20;10.52;;;5.32;;
52380;SDS011;38310;52.796;6.942;2023-08-08T01:51:46;7.40;;;5.10;;
52380;SDS011;38310;52.796;6.942;2023-08-08T01:54:13;9.00;;;5.93;;
52380;SDS011;38310;52.796;6.942;2023-08-08T01:56:39;9.98;;;5.13;;
52380;SDS011;38310;52.796;6.942;2023-08-08T01:59:10;10.43;;;5.90;;
52380;SDS011;38310;52.796;6.942;2023-08-08T02:01:36;8.98;;;6.38;;
52380;SDS011;38310;52.796;6.942;2023-08-08T02:04:02;8.00;;;4.88;;
52380;SDS011;38310;52.796;6.942;2023-08-08T02:06:27;10.02;;;5.80;;
52380;SDS011;38310;52.796;6.942;2023-08-08T02:08:53;8.68;;;5.63;;
52380;SDS011;38310;52.796;6.942;2023-08-08T02:11:19;8.93;;;5.80;;
52380;SDS011;38310;52.796;6.942;2023-08-08T02:13:46;8.52;;;5.40;;
52380;SDS011;38310;52.796;6.942;2023-08-08T02:16:12;8.50;;;5.97;;
52380;SDS011;38310;52.796;6.942;2023-08-08T02:18:38;8.68;;;6.22;;
52380;SDS011;38310;52.796;6.942;2023-08-08T02:21:06;8.18;;;5.88;;
52380;SDS011;38310;52.796;6.942;2023-08-08T02:23:32;9.75;;;5.60;;
52380;SDS011;38310;52.796;6.942;2023-08-08T02:25:59;10.52;;;6.10;;
52380;SDS011;38310;52.796;6.942;2023-08-08T02:28:24;7.95;;;5.90;;
52380;SDS011;38310;52.796;6.942;2023-08-08T02:30:50;10.00;;;5.50;;
52380;SDS011;38310;52.796;6.942;2023-08-08T02:33:16;8.00;;;6.05;;
52380;SDS011;38310;52.796;6.942;2023-08-08T02:35:42;10.63;;;5.93;;
52380;SDS011;38310;52.796;6.942;2023-08-08T02:38:08;11.65;;;6.25;;
52380;SDS011;38310;52.796;6.942;2023-08-08T02:40:33;14.32;;;7.13;;
52380;SDS011;38310;52.796;6.942;2023-08-08T02:42:59;9.23;;;5.70;;
52380;SDS011;38310;52.796;6.942;2023-08-08T02:45:25;12.23;;;7.05;;
52380;SDS011;38310;52.796;6.942;2023-08-08T02:47:50;10.32;;;6.47;;
52380;SDS011;38310;52.796;6.942;2023-08-08T02:50:16;9.00;;;6.32;;
52380;SDS011;38310;52.796;6.942;2023-08-08T02:52:42;14.45;;;7.10;;
52380;SDS011;38310;52.796;6.942;2023-08-08T02:55:08;12.05;;;6.45;;
52380;SDS011;38310;52.796;6.942;2023-08-08T02:57:34;9.75;;;6.82;;
52380;SDS011;38310;52.796;6.942;2023-08-08T02:59:59;11.95;;;6.32;;
52380;SDS011;38310;52.796;6.942;2023-08-08T03:02:25;10.65;;;6.22;;
52380;SDS011;38310;52.796;6.942;2023-08-08T03:04:51;13.02;;;7.30;;
52380;SDS011;38310;52.796;6.942;2023-08-08T03:07:16;10.75;;;6.63;;
52380;SDS011;38310;52.796;6.942;2023-08-08T03:09:42;10.63;;;6.68;;
52380;SDS011;38310;52.796;6.942;2023-08-08T03:12:08;11.05;;;6.68;;
52380;SDS011;38310;52.796;6.942;2023-08-08T03:14:33;9.13;;;6.60;;
52380;SDS011;38310;52.796;6.942;2023-08-08T03:16:59;15.55;;;7.20;;
52380;SDS011;38310;52.796;6.942;2023-08-08T03:19:25;12.93;;;6.63;;
52380;SDS011;38310;52.796;6.942;2023-08-08T03:21:52;12.38;;;6.55;;
52380;SDS011;38310;52.796;6.942;2023-08-08T03:24:18;13.80;;;6.97;;
52380;SDS011;38310;52.796;6.942;2023-08-08T03:26:44;12.13;;;6.55;;
52380;SDS011;38310;52.796;6.942;2023-08-08T03:29:09;13.85;;;7.03;;
52380;SDS011;38310;52.796;6.942;2023-08-08T03:31:36;9.85;;;6.47;;
52380;SDS011;38310;52.796;6.942;2023-08-08T03:34:02;10.73;;;6.75;;
52380;SDS011;38310;52.796;6.942;2023-08-08T03:36:28;11.70;;;6.82;;
52380;SDS011;38310;52.796;6.942;2023-08-08T03:38:53;10.55;;;6.65;;
52380;SDS011;38310;52.796;6.942;2023-08-08T03:41:19;11.57;;;7.07;;
52380;SDS011;38310;52.796;6.942;2023-08-08T03:43:45;12.02;;;7.13;;
52380;SDS011;38310;52.796;6.942;2023-08-08T03:46:11;11.07;;;6.68;;
52380;SDS011;38310;52.796;6.942;2023-08-08T03:48:37;11.55;;;6.95;;
52380;SDS011;38310;52.796;6.942;2023-08-08T03:51:03;13.57;;;6.53;;
52380;SDS011;38310;52.796;6.942;2023-08-08T03:53:29;10.73;;;6.72;;
52380;SDS011;38310;52.796;6.942;2023-08-08T03:55:55;11.02;;;6.88;;
52380;SDS011;38310;52.796;6.942;2023-08-08T03:58:21;10.68;;;6.70;;
52380;SDS011;38310;52.796;6.942;2023-08-08T04:00:46;11.45;;;6.45;;
52380;SDS011;38310;52.796;6.942;2023-08-08T04:03:15;12.10;;;7.32;;
52380;SDS011;38310;52.796;6.942;2023-08-08T04:05:48;11.23;;;6.03;;
52380;SDS011;38310;52.796;6.942;2023-08-08T04:08:14;13.50;;;6.95;;
52380;SDS011;38310;52.796;6.942;2023-08-08T04:10:40;8.85;;;6.20;;
52380;SDS011;38310;52.796;6.942;2023-08-08T04:13:06;10.98;;;6.43;;
52380;SDS011;38310;52.796;6.942;2023-08-08T04:15:32;12.57;;;6.10;;
52380;SDS011;38310;52.796;6.942;2023-08-08T04:17:58;11.15;;;5.55;;
52380;SDS011;38310;52.796;6.942;2023-08-08T04:20:24;12.30;;;5.55;;
52380;SDS011;38310;52.796;6.942;2023-08-08T04:22:50;10.18;;;5.47;;
52380;SDS011;38310;52.796;6.942;2023-08-08T04:25:15;11.93;;;5.18;;
52380;SDS011;38310;52.796;6.942;2023-08-08T04:27:41;12.02;;;5.70;;
52380;SDS011;38310;52.796;6.942;2023-08-08T04:30:07;9.00;;;5.28;;
52380;SDS011;38310;52.796;6.942;2023-08-08T04:32:33;9.80;;;4.68;;
52380;SDS011;38310;52.796;6.942;2023-08-08T04:34:59;8.60;;;4.88;;
52380;SDS011;38310;52.796;6.942;2023-08-08T04:37:25;9.85;;;4.90;;
52380;SDS011;38310;52.796;6.942;2023-08-08T04:39:51;10.48;;;5.13;;
52380;SDS011;38310;52.796;6.942;2023-08-08T04:42:16;10.02;;;4.57;;
52380;SDS011;38310;52.796;6.942;2023-08-08T04:44:42;8.45;;;4.30;;
52380;SDS011;38310;52.796;6.942;2023-08-08T04:47:08;9.35;;;4.70;;
52380;SDS011;38310;52.796;6.942;2023-08-08T04:49:33;8.70;;;4.72;;
52380;SDS011;38310;52.796;6.942;2023-08-08T04:51:59;11.02;;;4.55;;
52380;SDS011;38310;52.796;6.942;2023-08-08T04:54:25;11.70;;;4.53;;
52380;SDS011;38310;52.796;6.942;2023-08-08T04:56:50;8.35;;;4.47;;
52380;SDS011;38310;52.796;6.942;2023-08-08T04:59:16;7.75;;;4.18;;
52380;SDS011;38310;52.796;6.942;2023-08-08T05:01:42;9.63;;;4.10;;
52380;SDS011;38310;52.796;6.942;2023-08-08T05:04:08;13.07;;;4.68;;
52380;SDS011;38310;52.796;6.942;2023-08-08T05:06:34;9.40;;;4.10;;
52380;SDS011;38310;52.796;6.942;2023-08-08T05:08:59;11.40;;;4.30;;
52380;SDS011;38310;52.796;6.942;2023-08-08T05:11:25;7.78;;;4.00;;
52380;SDS011;38310;52.796;6.942;2023-08-08T05:13:51;7.43;;;3.92;;
52380;SDS011;38310;52.796;6.942;2023-08-08T05:16:17;8.05;;;3.72;;
52380;SDS011;38310;52.796;6.942;2023-08-08T05:18:43;6.53;;;3.60;;
52380;SDS011;38310;52.796;6.942;2023-08-08T05:21:10;8.27;;;4.32;;
52380;SDS011;38310;52.796;6.942;2023-08-08T05:23:36;7.00;;;4.00;;
52380;SDS011;38310;52.796;6.942;2023-08-08T05:26:02;6.30;;;3.70;;
52380;SDS011;38310;52.796;6.942;2023-08-08T05:28:28;9.90;;;4.03;;
52380;SDS011;38310;52.796;6.942;2023-08-08T05:30:54;7.35;;;3.20;;
52380;SDS011;38310;52.796;6.942;2023-08-08T05:33:21;8.50;;;3.60;;
52380;SDS011;38310;52.796;6.942;2023-08-08T05:35:47;8.75;;;3.28;;
52380;SDS011;38310;52.796;6.942;2023-08-08T05:38:13;6.60;;;3.30;;
52380;SDS011;38310;52.796;6.942;2023-08-08T05:40:39;8.07;;;3.40;;
52380;SDS011;38310;52.796;6.942;2023-08-08T05:43:05;6.47;;;3.60;;
52380;SDS011;38310;52.796;6.942;2023-08-08T05:45:30;7.60;;;2.92;;
52380;SDS011;38310;52.796;6.942;2023-08-08T05:47:57;6.50;;;2.60;;
52380;SDS011;38310;52.796;6.942;2023-08-08T05:50:24;6.13;;;2.92;;
52380;SDS011;38310;52.796;6.942;2023-08-08T05:52:50;9.35;;;3.75;;
52380;SDS011;38310;52.796;6.942;2023-08-08T05:55:16;5.63;;;3.00;;
52380;SDS011;38310;52.796;6.942;2023-08-08T05:57:41;8.70;;;2.65;;
52380;SDS011;38310;52.796;6.942;2023-08-08T06:00:07;5.20;;;2.72;;
52380;SDS011;38310;52.796;6.942;2023-08-08T06:02:36;6.28;;;3.10;;
52380;SDS011;38310;52.796;6.942;2023-08-08T06:05:02;6.43;;;2.72;;
52380;SDS011;38310;52.796;6.942;2023-08-08T06:07:29;6.90;;;2.70;;
52380;SDS011;38310;52.796;6.942;2023-08-08T06:09:54;5.53;;;2.72;;
52380;SDS011;38310;52.796;6.942;2023-08-08T06:12:20;7.18;;;2.70;;
52380;SDS011;38310;52.796;6.942;2023-08-08T06:14:46;4.60;;;2.50;;
52380;SDS011;38310;52.796;6.942;2023-08-08T06:17:12;6.45;;;2.47;;
52380;SDS011;38310;52.796;6.942;2023-08-08T06:19:38;7.18;;;2.38;;
52380;SDS011;38310;52.796;6.942;2023-08-08T06:22:04;5.95;;;2.03;;
52380;SDS011;38310;52.796;6.942;2023-08-08T06:24:29;4.72;;;2.13;;
52380;SDS011;38310;52.796;6.942;2023-08-08T06:26:55;4.88;;;2.30;;
52380;SDS011;38310;52.796;6.942;2023-08-08T06:29:21;5.90;;;2.15;;
52380;SDS011;38310;52.796;6.942;2023-08-08T06:31:47;6.30;;;2.35;;
52380;SDS011;38310;52.796;6.942;2023-08-08T06:34:13;5.47;;;2.20;;
52380;SDS011;38310;52.796;6.942;2023-08-08T06:36:38;6.32;;;1.75;;
52380;SDS011;38310;52.796;6.942;2023-08-08T06:39:05;9.18;;;2.28;;
52380;SDS011;38310;52.796;6.942;2023-08-08T06:41:31;7.25;;;2.25;;
52380;SDS011;38310;52.796;6.942;2023-08-08T06:43:57;5.15;;;1.90;;
52380;SDS011;38310;52.796;6.942;2023-08-08T06:46:23;6.85;;;2.35;;
52380;SDS011;38310;52.796;6.942;2023-08-08T06:48:50;7.82;;;2.05;;
52380;SDS011;38310;52.796;6.942;2023-08-08T06:51:18;5.10;;;2.40;;
52380;SDS011;38310;52.796;6.942;2023-08-08T06:53:44;7.35;;;2.22;;
52380;SDS011;38310;52.796;6.942;2023-08-08T06:56:09;9.13;;;2.40;;
52380;SDS011;38310;52.796;6.942;2023-08-08T06:58:35;7.00;;;1.95;;
52380;SDS011;38310;52.796;6.942;2023-08-08T07:01:01;6.05;;;1.90;;
52380;SDS011;38310;52.796;6.942;2023-08-08T07:03:27;6.50;;;2.00;;
52380;SDS011;38310;52.796;6.942;2023-08-08T07:05:53;5.07;;;2.00;;
52380;SDS011;38310;52.796;6.942;2023-08-08T07:08:19;9.65;;;2.60;;
52380;SDS011;38310;52.796;6.942;2023-08-08T07:10:45;5.70;;;2.17;;
52380;SDS011;38310;52.796;6.942;2023-08-08T07:13:11;3.72;;;1.95;;
52380;SDS011;38310;52.796;6.942;2023-08-08T07:15:36;6.43;;;2.00;;
52380;SDS011;38310;52.796;6.942;2023-08-08T07:18:03;7.10;;;2.10;;
52380;SDS011;38310;52.796;6.942;2023-08-08T07:20:29;7.18;;;1.80;;
52380;SDS011;38310;52.796;6.942;2023-08-08T07:22:55;5.40;;;1.90;;
52380;SDS011;38310;52.796;6.942;2023-08-08T07:25:20;6.13;;;2.00;;
52380;SDS011;38310;52.796;6.942;2023-08-08T07:27:46;5.18;;;1.88;;
52380;SDS011;38310;52.796;6.942;2023-08-08T07:30:12;4.75;;;1.75;;
52380;SDS011;38310;52.796;6.942;2023-08-08T07:32:38;4.43;;;1.85;;
52380;SDS011;38310;52.796;6.942;2023-08-08T07:35:04;5.53;;;1.83;;
52380;SDS011;38310;52.796;6.942;2023-08-08T07:37:33;4.55;;;1.60;;
52380;SDS011;38310;52.796;6.942;2023-08-08T07:39:59;7.88;;;2.03;;
52380;SDS011;38310;52.796;6.942;2023-08-08T07:42:25;6.45;;;1.55;;
52380;SDS011;38310;52.796;6.942;2023-08-08T07:44:51;6.90;;;1.67;;
52380;SDS011;38310;52.796;6.942;2023-08-08T07:47:17;6.45;;;1.48;;
52380;SDS011;38310;52.796;6.942;2023-08-08T07:49:42;6.70;;;1.42;;
52380;SDS011;38310;52.796;6.942;2023-08-08T07:52:08;6.82;;;1.60;;
52380;SDS011;38310;52.796;6.942;2023-08-08T07:54:34;5.28;;;1.50;;
52380;SDS011;38310;52.796;6.942;2023-08-08T07:57:00;6.07;;;1.48;;
52380;SDS011;38310;52.796;6.942;2023-08-08T07:59:26;5.55;;;1.52;;
52380;SDS011;38310;52.796;6.942;2023-08-08T08:01:51;4.57;;;1.30;;
52380;SDS011;38310;52.796;6.942;2023-08-08T08:04:17;5.22;;;1.33;;
52380;SDS011;38310;52.796;6.942;2023-08-08T08:06:43;3.33;;;1.30;;
52380;SDS011;38310;52.796;6.942;2023-08-08T08:09:08;6.90;;;1.50;;
52380;SDS011;38310;52.796;6.942;2023-08-08T08:11:34;3.40;;;1.35;;
52380;SDS011;38310;52.796;6.942;2023-08-08T08:14:00;3.92;;;1.48;;
52380;SDS011;38310;52.796;6.942;2023-08-08T08:16:26;4.80;;;1.40;;
52380;SDS011;38310;52.796;6.942;2023-08-08T08:18:51;3.28;;;1.10;;
52380;SDS011;38310;52.796;6.942;2023-08-08T08:21:17;4.05;;;1.45;;
52380;SDS011;38310;52.796;6.942;2023-08-08T08:23:43;5.80;;;1.40;;
52380;SDS011;38310;52.796;6.942;2023-08-08T08:26:09;6.07;;;1.30;;
52380;SDS011;38310;52.796;6.942;2023-08-08T08:28:35;7.53;;;1.23;;
52380;SDS011;38310;52.796;6.942;2023-08-08T08:31:04;4.22;;;1.50;;
52380;SDS011;38310;52.796;6.942;2023-08-08T08:33:31;6.00;;;1.48;;
52380;SDS011;38310;52.796;6.942;2023-08-08T08:35:57;6.10;;;1.50;;
52380;SDS011;38310;52.796;6.942;2023-08-08T08:38:22;5.57;;;1.20;;
52380;SDS011;38310;52.796;6.942;2023-08-08T08:40:48;3.90;;;1.48;;
52380;SDS011;38310;52.796;6.942;2023-08-08T08:43:14;3.83;;;1.00;;
52380;SDS011;38310;52.796;6.942;2023-08-08T08:45:42;6.55;;;1.48;;
52380;SDS011;38310;52.796;6.942;2023-08-08T08:48:11;3.13;;;1.30;;
52380;SDS011;38310;52.796;6.942;2023-08-08T08:50:40;6.90;;;1.50;;
52380;SDS011;38310;52.796;6.942;2023-08-08T08:53:06;3.90;;;1.00;;
52380;SDS011;38310;52.796;6.942;2023-08-08T08:55:32;4.65;;;1.27;;
52380;SDS011;38310;52.796;6.942;2023-08-08T08:57:58;4.78;;;1.05;;
52380;SDS011;38310;52.796;6.942;2023-08-08T09:00:24;5.97;;;1.40;;
52380;SDS011;38310;52.796;6.942;2023-08-08T09:02:50;3.92;;;1.10;;
52380;SDS011;38310;52.796;6.942;2023-08-08T09:05:17;5.45;;;1.35;;
52380;SDS011;38310;52.796;6.942;2023-08-08T09:07:47;4.88;;;1.30;;
52380;SDS011;38310;52.796;6.942;2023-08-08T09:10:14;7.05;;;1.45;;
52380;SDS011;38310;52.796;6.942;2023-08-08T09:12:41;5.32;;;1.27;;
52380;SDS011;38310;52.796;6.942;2023-08-08T09:15:07;2.83;;;1.23;;
52380;SDS011;38310;52.796;6.942;2023-08-08T09:17:35;4.88;;;1.00;;
52380;SDS011;38310;52.796;6.942;2023-08-08T09:20:00;3.38;;;0.90;;
52380;SDS011;38310;52.796;6.942;2023-08-08T09:22:26;4.43;;;1.30;;
52380;SDS011;38310;52.796;6.942;2023-08-08T09:24:54;5.85;;;1.63;;
52380;SDS011;38310;52.796;6.942;2023-08-08T09:27:20;4.28;;;1.10;;
52380;SDS011;38310;52.796;6.942;2023-08-08T09:29:46;2.97;;;0.95;;
52380;SDS011;38310;52.796;6.942;2023-08-08T09:32:12;2.90;;;1.50;;
52380;SDS011;38310;52.796;6.942;2023-08-08T09:34:40;3.55;;;1.50;;
52380;SDS011;38310;52.796;6.942;2023-08-08T09:37:07;4.07;;;1.23;;
52380;SDS011;38310;52.796;6.942;2023-08-08T09:39:33;2.40;;;1.00;;
52380;SDS011;38310;52.796;6.942;2023-08-08T09:41:59;4.72;;;1.20;;
52380;SDS011;38310;52.796;6.942;2023-08-08T09:44:27;4.15;;;1.30;;
52380;SDS011;38310;52.796;6.942;2023-08-08T09:46:54;2.95;;;0.90;;
52380;SDS011;38310;52.796;6.942;2023-08-08T09:49:21;5.50;;;0.90;;
52380;SDS011;38310;52.796;6.942;2023-08-08T09:51:47;2.60;;;1.00;;
52380;SDS011;38310;52.796;6.942;2023-08-08T09:54:16;4.40;;;1.10;;
52380;SDS011;38310;52.796;6.942;2023-08-08T09:56:42;3.97;;;1.17;;
52380;SDS011;38310;52.796;6.942;2023-08-08T09:59:09;3.80;;;1.10;;
52380;SDS011;38310;52.796;6.942;2023-08-08T10:01:39;4.97;;;1.00;;
52380;SDS011;38310;52.796;6.942;2023-08-08T10:04:07;2.65;;;1.00;;
52380;SDS011;38310;52.796;6.942;2023-08-08T10:06:33;2.78;;;1.10;;
52380;SDS011;38310;52.796;6.942;2023-08-08T10:08:59;3.75;;;1.20;;
52380;SDS011;38310;52.796;6.942;2023-08-08T10:11:26;5.25;;;1.10;;
52380;SDS011;38310;52.796;6.942;2023-08-08T10:13:53;4.28;;;1.10;;
52380;SDS011;38310;52.796;6.942;2023-08-08T10:16:20;2.85;;;1.15;;
52380;SDS011;38310;52.796;6.942;2023-08-08T10:19:01;4.20;;;0.98;;
52380;SDS011;38310;52.796;6.942;2023-08-08T10:21:28;2.75;;;1.30;;
52380;SDS011;38310;52.796;6.942;2023-08-08T10:24:05;4.55;;;1.38;;
52380;SDS011;38310;52.796;6.942;2023-08-08T10:26:33;4.82;;;1.20;;
52380;SDS011;38310;52.796;6.942;2023-08-08T10:29:00;4.63;;;1.10;;
52380;SDS011;38310;52.796;6.942;2023-08-08T10:31:26;6.25;;;0.95;;
52380;SDS011;38310;52.796;6.942;2023-08-08T10:34:05;3.30;;;0.90;;
52380;SDS011;38310;52.796;6.942;2023-08-08T10:36:49;4.28;;;1.30;;
52380;SDS011;38310;52.796;6.942;2023-08-08T10:39:17;2.53;;;1.10;;
52380;SDS011;38310;52.796;6.942;2023-08-08T10:41:48;4.95;;;1.10;;
52380;SDS011;38310;52.796;6.942;2023-08-08T10:44:21;4.15;;;1.38;;
52380;SDS011;38310;52.796;6.942;2023-08-08T10:46:51;5.38;;;1.30;;
52380;SDS011;38310;52.796;6.942;2023-08-08T10:49:18;3.65;;;1.10;;
52380;SDS011;38310;52.796;6.942;2023-08-08T10:51:44;5.65;;;1.17;;
52380;SDS011;38310;52.796;6.942;2023-08-08T10:54:12;4.00;;;1.33;;
52380;SDS011;38310;52.796;6.942;2023-08-08T10:56:40;4.03;;;1.30;;
52380;SDS011;38310;52.796;6.942;2023-08-08T10:59:19;2.83;;;1.30;;
52380;SDS011;38310;52.796;6.942;2023-08-08T11:01:49;2.38;;;1.05;;
52380;SDS011;38310;52.796;6.942;2023-08-08T11:04:20;2.97;;;1.25;;
52380;SDS011;38310;52.796;6.942;2023-08-08T11:06:48;5.47;;;1.00;;
52380;SDS011;38310;52.796;6.942;2023-08-08T11:09:15;4.85;;;1.13;;
52380;SDS011;38310;52.796;6.942;2023-08-08T11:11:43;7.70;;;2.20;;
52380;SDS011;38310;52.796;6.942;2023-08-08T11:14:13;5.68;;;1.60;;
52380;SDS011;38310;52.796;6.942;2023-08-08T11:16:40;4.68;;;2.03;;
52380;SDS011;38310;52.796;6.942;2023-08-08T11:19:07;6.15;;;1.50;;
52380;SDS011;38310;52.796;6.942;2023-08-08T11:21:40;2.72;;;1.23;;
52380;SDS011;38310;52.796;6.942;2023-08-08T11:24:07;8.70;;;2.38;;
52380;SDS011;38310;52.796;6.942;2023-08-08T11:26:34;4.38;;;1.50;;
52380;SDS011;38310;52.796;6.942;2023-08-08T11:29:02;6.90;;;1.67;;
52380;SDS011;38310;52.796;6.942;2023-08-08T11:31:30;3.25;;;1.77;;
52380;SDS011;38310;52.796;6.942;2023-08-08T11:33:57;4.28;;;1.90;;
52380;SDS011;38310;52.796;6.942;2023-08-08T11:36:24;6.07;;;1.85;;
52380;SDS011;38310;52.796;6.942;2023-08-08T11:38:53;5.43;;;1.92;;
52380;SDS011;38310;52.796;6.942;2023-08-08T11:41:21;7.15;;;1.60;;
52380;SDS011;38310;52.796;6.942;2023-08-08T11:43:49;5.65;;;1.70;;
52380;SDS011;38310;52.796;6.942;2023-08-08T11:46:16;3.95;;;1.50;;
52380;SDS011;38310;52.796;6.942;2023-08-08T11:48:42;4.95;;;1.65;;
52380;SDS011;38310;52.796;6.942;2023-08-08T11:51:11;4.05;;;1.25;;
52380;SDS011;38310;52.796;6.942;2023-08-08T11:53:52;5.43;;;1.55;;
52380;SDS011;38310;52.796;6.942;2023-08-08T11:56:19;2.85;;;1.33;;
52380;SDS011;38310;52.796;6.942;2023-08-08T11:58:47;1.55;;;1.02;;
52380;SDS011;38310;52.796;6.942;2023-08-08T12:01:19;3.85;;;1.50;;
52380;SDS011;38310;52.796;6.942;2023-08-08T12:03:48;3.40;;;1.20;;
52380;SDS011;38310;52.796;6.942;2023-08-08T12:06:14;2.78;;;1.42;;
52380;SDS011;38310;52.796;6.942;2023-08-08T12:08:41;8.40;;;1.50;;
52380;SDS011;38310;52.796;6.942;2023-08-08T12:11:08;4.20;;;1.45;;
52380;SDS011;38310;52.796;6.942;2023-08-08T12:13:34;3.75;;;1.70;;
52380;SDS011;38310;52.796;6.942;2023-08-08T12:16:04;7.10;;;1.63;;
52380;SDS011;38310;52.796;6.942;2023-08-08T12:18:31;5.15;;;1.70;;
52380;SDS011;38310;52.796;6.942;2023-08-08T12:20:57;4.40;;;1.52;;
52380;SDS011;38310;52.796;6.942;2023-08-08T12:23:25;3.55;;;1.38;;
52380;SDS011;38310;52.796;6.942;2023-08-08T12:25:52;4.65;;;1.63;;
52380;SDS011;38310;52.796;6.942;2023-08-08T12:28:18;5.88;;;1.33;;
52380;SDS011;38310;52.796;6.942;2023-08-08T12:30:44;3.95;;;1.58;;
52380;SDS011;38310;52.796;6.942;2023-08-08T12:33:10;2.45;;;1.15;;
52380;SDS011;38310;52.796;6.942;2023-08-08T12:35:36;4.10;;;1.65;;
52380;SDS011;38310;52.796;6.942;2023-08-08T12:38:01;4.03;;;1.52;;
52380;SDS011;38310;52.796;6.942;2023-08-08T12:40:28;4.07;;;1.27;;
52380;SDS011;38310;52.796;6.942;2023-08-08T12:42:54;3.10;;;1.15;;
52380;SDS011;38310;52.796;6.942;2023-08-08T12:45:20;3.55;;;1.30;;
52380;SDS011;38310;52.796;6.942;2023-08-08T12:47:46;5.25;;;1.35;;
52380;SDS011;38310;52.796;6.942;2023-08-08T12:50:12;4.32;;;1.20;;
52380;SDS011;38310;52.796;6.942;2023-08-08T12:52:37;4.88;;;1.35;;
52380;SDS011;38310;52.796;6.942;2023-08-08T12:55:04;6.18;;;1.13;;
52380;SDS011;38310;52.796;6.942;2023-08-08T12:57:30;3.67;;;0.90;;
52380;SDS011;38310;52.796;6.942;2023-08-08T12:59:56;3.10;;;1.10;;
52380;SDS011;38310;52.796;6.942;2023-08-08T13:02:22;4.85;;;1.30;;
52380;SDS011;38310;52.796;6.942;2023-08-08T13:04:47;3.28;;;0.85;;
52380;SDS011;38310;52.796;6.942;2023-08-08T13:07:13;6.07;;;1.20;;
52380;SDS011;38310;52.796;6.942;2023-08-08T13:09:39;3.45;;;1.05;;
52380;SDS011;38310;52.796;6.942;2023-08-08T13:12:05;2.90;;;1.20;;
52380;SDS011;38310;52.796;6.942;2023-08-08T13:14:31;3.10;;;1.25;;
52380;SDS011;38310;52.796;6.942;2023-08-08T13:16:58;1.75;;;0.80;;
52380;SDS011;38310;52.796;6.942;2023-08-08T13:19:24;4.53;;;1.17;;
52380;SDS011;38310;52.796;6.942;2023-08-08T13:21:53;4.53;;;1.23;;
52380;SDS011;38310;52.796;6.942;2023-08-08T13:24:19;3.42;;;1.40;;
52380;SDS011;38310;52.796;6.942;2023-08-08T13:26:48;4.47;;;1.40;;
52380;SDS011;38310;52.796;6.942;2023-08-08T13:29:17;2.08;;;1.27;;
52380;SDS011;38310;52.796;6.942;2023-08-08T13:31:42;3.78;;;1.25;;
52380;SDS011;38310;52.796;6.942;2023-08-08T13:34:09;5.28;;;1.35;;
52380;SDS011;38310;52.796;6.942;2023-08-08T13:36:35;3.88;;;1.20;;
52380;SDS011;38310;52.796;6.942;2023-08-08T13:39:01;3.58;;;1.20;;
52380;SDS011;38310;52.796;6.942;2023-08-08T13:41:27;6.43;;;1.58;;
52380;SDS011;38310;52.796;6.942;2023-08-08T13:43:52;2.97;;;1.15;;
52380;SDS011;38310;52.796;6.942;2023-08-08T13:46:18;4.13;;;1.27;;
52380;SDS011;38310;52.796;6.942;2023-08-08T13:48:44;5.05;;;1.30;;
52380;SDS011;38310;52.796;6.942;2023-08-08T13:51:10;3.63;;;1.30;;
52380;SDS011;38310;52.796;6.942;2023-08-08T13:53:35;4.32;;;1.30;;
52380;SDS011;38310;52.796;6.942;2023-08-08T13:56:01;2.65;;;1.10;;
52380;SDS011;38310;52.796;6.942;2023-08-08T13:58:27;4.05;;;1.23;;
52380;SDS011;38310;52.796;6.942;2023-08-08T14:00:52;5.22;;;1.27;;
52380;SDS011;38310;52.796;6.942;2023-08-08T14:03:19;5.45;;;1.35;;
52380;SDS011;38310;52.796;6.942;2023-08-08T14:05:45;2.85;;;0.73;;
52380;SDS011;38310;52.796;6.942;2023-08-08T14:08:11;4.82;;;1.33;;
52380;SDS011;38310;52.796;6.942;2023-08-08T14:10:37;5.68;;;1.10;;
52380;SDS011;38310;52.796;6.942;2023-08-08T14:13:03;3.50;;;1.35;;
52380;SDS011;38310;52.796;6.942;2023-08-08T14:15:28;3.95;;;1.42;;
52380;SDS011;38310;52.796;6.942;2023-08-08T14:17:54;4.55;;;1.50;;
52380;SDS011;38310;52.796;6.942;2023-08-08T14:20:20;4.07;;;1.20;;
52380;SDS011;38310;52.796;6.942;2023-08-08T14:22:46;5.40;;;1.40;;
52380;SDS011;38310;52.796;6.942;2023-08-08T14:25:12;3.47;;;1.40;;
52380;SDS011;38310;52.796;6.942;2023-08-08T14:27:38;5.18;;;1.25;;
52380;SDS011;38310;52.796;6.942;2023-08-08T14:30:04;3.08;;;1.17;;
52380;SDS011;38310;52.796;6.942;2023-08-08T14:32:31;2.72;;;0.90;;
52380;SDS011;38310;52.796;6.942;2023-08-08T14:34:57;3.13;;;1.00;;
52380;SDS011;38310;52.796;6.942;2023-08-08T14:37:22;4.22;;;1.00;;
52380;SDS011;38310;52.796;6.942;2023-08-08T14:39:48;2.28;;;1.00;;
52380;SDS011;38310;52.796;6.942;2023-08-08T14:42:14;5.10;;;1.50;;